sensor_id;sensor_type;location;lat;lon;timestamp;pressure;altitude;pressure_sealevel;temperature;humidity
76156;BME280;64906;51.290;7.348;2023-05-07T00:00:35;98717.31;;;20.85;42.45
76156;BME280;64906;51.290;7.348;2023-05-07T00:03:00;98708.56;;;20.83;42.63
76156;BME280;64906;51.290;7.348;2023-05-07T00:05:26;98709.38;;;20.84;42.28
76156;BME280;64906;51.290;7.348;2023-05-07T00:07:51;98711.31;;;20.83;42.52
76156;BME280;64906;51.290;7.348;2023-05-07T00:10:18;98708.56;;;20.83;42.57
76156;BME280;64906;51.290;7.348;2023-05-07T00:12:44;98710.78;;;20.81;42.62
76156;BME280;64906;51.290;7.348;2023-05-07T00:15:09;98715.47;;;20.81;42.42
76156;BME280;64906;51.290;7.348;2023-05-07T00:17:35;98719.84;;;20.82;42.37
76156;BME280;64906;51.290;7.348;2023-05-07T00:20:02;98716.28;;;20.81;42.33
76156;BME280;64906;51.290;7.348;2023-05-07T00:22:28;98718.19;;;20.81;42.56
76156;BME280;64906;51.290;7.348;2023-05-07T00:24:55;98722.06;;;20.80;42.45
76156;BME280;64906;51.290;7.348;2023-05-07T00:27:20;98713.53;;;20.81;42.57
76156;BME280;64906;51.290;7.348;2023-05-07T00:29:45;98709.13;;;20.80;42.61
76156;BME280;64906;51.290;7.348;2023-05-07T00:32:11;98709.44;;;20.79;42.51
76156;BME280;64906;51.290;7.348;2023-05-07T00:34:36;98703.16;;;20.78;42.41
76156;BME280;64906;51.290;7.348;2023-05-07T00:37:01;98702.34;;;20.78;42.54
76156;BME280;64906;51.290;7.348;2023-05-07T00:39:27;98706.69;;;20.79;42.61
76156;BME280;64906;51.290;7.348;2023-05-07T00:41:52;98702.34;;;20.78;42.36
76156;BME280;64906;51.290;7.348;2023-05-07T00:44:17;98700.41;;;20.78;42.59
76156;BME280;64906;51.290;7.348;2023-05-07T00:46:43;98702.34;;;20.78;42.75
76156;BME280;64906;51.290;7.348;2023-05-07T00:49:10;98707.00;;;20.77;42.49
76156;BME280;64906;51.290;7.348;2023-05-07T00:51:35;98709.75;;;20.77;42.49
76156;BME280;64906;51.290;7.348;2023-05-07T00:54:02;98701.50;;;20.77;42.64
76156;BME280;64906;51.290;7.348;2023-05-07T00:56:28;98699.88;;;20.76;42.33
76156;BME280;64906;51.290;7.348;2023-05-07T00:58:53;98706.19;;;20.77;42.63
76156;BME280;64906;51.290;7.348;2023-05-07T01:01:19;98698.75;;;20.77;42.64
76156;BME280;64906;51.290;7.348;2023-05-07T01:03:45;98696.31;;;20.76;42.47
76156;BME280;64906;51.290;7.348;2023-05-07T01:06:10;98690.03;;;20.75;42.82
76156;BME280;64906;51.290;7.348;2023-05-07T01:08:41;98697.16;;;20.76;42.69
76156;BME280;64906;51.290;7.348;2023-05-07T01:11:07;98697.44;;;20.75;42.60
76156;BME280;64906;51.290;7.348;2023-05-07T01:13:34;98691.97;;;20.75;42.45
76156;BME280;64906;51.290;7.348;2023-05-07T01:16:00;98691.13;;;20.74;42.37
76156;BME280;64906;51.290;7.348;2023-05-07T01:18:26;98690.84;;;20.76;42.42
76156;BME280;64906;51.290;7.348;2023-05-07T01:20:52;98689.50;;;20.73;42.27
76156;BME280;64906;51.290;7.348;2023-05-07T01:23:18;98688.69;;;20.73;42.29
76156;BME280;64906;51.290;7.348;2023-05-07T01:25:43;98693.34;;;20.72;42.70
76156;BME280;64906;51.290;7.348;2023-05-07T01:28:08;98695.00;;;20.73;42.40
76156;BME280;64906;51.290;7.348;2023-05-07T01:30:34;98687.88;;;20.72;42.40
76156;BME280;64906;51.290;7.348;2023-05-07T01:33:09;98691.72;;;20.71;42.51
76156;BME280;64906;51.290;7.348;2023-05-07T01:35:40;98689.50;;;20.73;42.23
76156;BME280;64906;51.290;7.348;2023-05-07T01:38:07;98691.44;;;20.73;42.60
76156;BME280;64906;51.290;7.348;2023-05-07T01:40:33;98689.28;;;20.70;42.66
76156;BME280;64906;51.290;7.348;2023-05-07T01:43:00;98685.72;;;20.69;42.54
76156;BME280;64906;51.290;7.348;2023-05-07T01:45:27;98686.84;;;20.68;42.71
76156;BME280;64906;51.290;7.348;2023-05-07T01:47:52;98690.41;;;20.69;42.51
76156;BME280;64906;51.290;7.348;2023-05-07T01:50:19;98687.38;;;20.70;42.43
76156;BME280;64906;51.290;7.348;2023-05-07T01:52:45;98687.94;;;20.67;42.61
76156;BME280;64906;51.290;7.348;2023-05-07T01:55:12;98693.78;;;20.61;42.63
76156;BME280;64906;51.290;7.348;2023-05-07T01:57:37;98679.06;;;20.57;42.99
76156;BME280;64906;51.290;7.348;2023-05-07T02:00:03;98679.06;;;20.57;42.54
76156;BME280;64906;51.290;7.348;2023-05-07T02:02:30;98677.44;;;20.56;42.88
76156;BME280;64906;51.290;7.348;2023-05-07T02:04:55;98688.41;;;20.56;42.97
76156;BME280;64906;51.290;7.348;2023-05-07T02:07:20;98689.50;;;20.55;42.83
76156;BME280;64906;51.290;7.348;2023-05-07T02:09:46;98693.88;;;20.56;43.02
76156;BME280;64906;51.290;7.348;2023-05-07T02:12:11;98690.63;;;20.54;42.97
76156;BME280;64906;51.290;7.348;2023-05-07T02:14:36;98680.75;;;20.53;42.76
76156;BME280;64906;51.290;7.348;2023-05-07T02:17:01;98688.41;;;20.56;42.89
76156;BME280;64906;51.290;7.348;2023-05-07T02:19:27;98679.66;;;20.54;42.74
76156;BME280;64906;51.290;7.348;2023-05-07T02:21:52;98692.22;;;20.55;42.76
76156;BME280;64906;51.290;7.348;2023-05-07T02:24:18;98688.16;;;20.52;43.02
76156;BME280;64906;51.290;7.348;2023-05-07T02:26:43;98694.44;;;20.53;42.70
76156;BME280;64906;51.290;7.348;2023-05-07T02:29:08;98689.78;;;20.53;42.82
76156;BME280;64906;51.290;7.348;2023-05-07T02:31:34;98682.97;;;20.51;43.07
76156;BME280;64906;51.290;7.348;2023-05-07T02:34:00;98677.50;;;20.51;42.69
76156;BME280;64906;51.290;7.348;2023-05-07T02:36:25;98689.25;;;20.51;42.83
76156;BME280;64906;51.290;7.348;2023-05-07T02:38:51;98678.59;;;20.50;42.65
76156;BME280;64906;51.290;7.348;2023-05-07T02:41:17;98684.06;;;20.50;42.98
76156;BME280;64906;51.290;7.348;2023-05-07T02:43:42;98681.34;;;20.50;43.07
76156;BME280;64906;51.290;7.348;2023-05-07T02:46:08;98673.94;;;20.50;42.79
76156;BME280;64906;51.290;7.348;2023-05-07T02:48:34;98682.97;;;20.51;43.17
76156;BME280;64906;51.290;7.348;2023-05-07T02:51:00;98680.50;;;20.49;43.06
76156;BME280;64906;51.290;7.348;2023-05-07T02:53:26;98671.94;;;20.56;42.84
76156;BME280;64906;51.290;7.348;2023-05-07T02:55:58;98676.31;;;20.57;42.62
76156;BME280;64906;51.290;7.348;2023-05-07T02:58:24;98669.41;;;20.59;42.82
76156;BME280;64906;51.290;7.348;2023-05-07T03:00:49;98667.47;;;20.60;42.52
76156;BME280;64906;51.290;7.348;2023-05-07T03:03:15;98666.66;;;20.59;42.77
76156;BME280;64906;51.290;7.348;2023-05-07T03:05:40;98669.41;;;20.59;42.87
76156;BME280;64906;51.290;7.348;2023-05-07T03:08:06;98672.44;;;20.58;42.56
76156;BME280;64906;51.290;7.348;2023-05-07T03:10:31;98668.09;;;20.57;42.83
76156;BME280;64906;51.290;7.348;2023-05-07T03:12:57;98675.19;;;20.58;42.65
76156;BME280;64906;51.290;7.348;2023-05-07T03:15:22;98663.41;;;20.57;42.50
76156;BME280;64906;51.290;7.348;2023-05-07T03:17:48;98661.78;;;20.56;42.83
76156;BME280;64906;51.290;7.348;2023-05-07T03:20:13;98669.19;;;20.56;42.73
76156;BME280;64906;51.290;7.348;2023-05-07T03:22:38;98671.94;;;20.56;42.73
76156;BME280;64906;51.290;7.348;2023-05-07T03:25:05;98670.28;;;20.55;42.53
76156;BME280;64906;51.290;7.348;2023-05-07T03:27:30;98680.19;;;20.56;42.55
76156;BME280;64906;51.290;7.348;2023-05-07T03:29:56;98668.38;;;20.55;42.86
76156;BME280;64906;51.290;7.348;2023-05-07T03:32:21;98676.91;;;20.54;42.61
76156;BME280;64906;51.290;7.348;2023-05-07T03:34:46;98674.94;;;20.54;42.71
76156;BME280;64906;51.290;7.348;2023-05-07T03:37:11;98670.28;;;20.55;42.53
76156;BME280;64906;51.290;7.348;2023-05-07T03:39:37;98674.16;;;20.54;42.92
76156;BME280;64906;51.290;7.348;2023-05-07T03:42:02;98674.16;;;20.54;42.61
76156;BME280;64906;51.290;7.348;2023-05-07T03:44:28;98667.03;;;20.53;42.67
76156;BME280;64906;51.290;7.348;2023-05-07T03:46:53;98664.28;;;20.53;42.57
76156;BME280;64906;51.290;7.348;2023-05-07T03:49:18;98676.38;;;20.52;42.73
76156;BME280;64906;51.290;7.348;2023-05-07T03:51:43;98668.16;;;20.52;42.62
76156;BME280;64906;51.290;7.348;2023-05-07T03:54:09;98667.31;;;20.51;42.59
76156;BME280;64906;51.290;7.348;2023-05-07T03:56:34;98674.75;;;20.51;42.63
76156;BME280;64906;51.290;7.348;2023-05-07T03:59:00;98667.31;;;20.51;42.55
76156;BME280;64906;51.290;7.348;2023-05-07T04:01:25;98668.44;;;20.50;42.92
76156;BME280;64906;51.290;7.348;2023-05-07T04:03:51;98675.56;;;20.51;42.56
76156;BME280;64906;51.290;7.348;2023-05-07T04:06:16;98684.91;;;20.50;42.52
76156;BME280;64906;51.290;7.348;2023-05-07T04:08:44;98683.25;;;20.49;42.80
76156;BME280;64906;51.290;7.348;2023-05-07T04:11:09;98684.06;;;20.50;42.60
76156;BME280;64906;51.290;7.348;2023-05-07T04:13:35;98682.16;;;20.50;42.48
76156;BME280;64906;51.290;7.348;2023-05-07T04:16:01;98685.72;;;20.51;42.79
76156;BME280;64906;51.290;7.348;2023-05-07T04:18:27;98681.34;;;20.50;42.80
76156;BME280;64906;51.290;7.348;2023-05-07T04:20:53;98682.47;;;20.49;42.84
76156;BME280;64906;51.290;7.348;2023-05-07T04:23:18;98687.94;;;20.49;42.74
76156;BME280;64906;51.290;7.348;2023-05-07T04:25:43;98686.81;;;20.50;42.73
76156;BME280;64906;51.290;7.348;2023-05-07T04:28:08;98689.56;;;20.50;42.54
76156;BME280;64906;51.290;7.348;2023-05-07T04:30:34;98687.13;;;20.48;42.91
76156;BME280;64906;51.290;7.348;2023-05-07T04:32:59;98686.00;;;20.49;42.69
76156;BME280;64906;51.290;7.348;2023-05-07T04:35:24;98684.38;;;20.48;42.80
76156;BME280;64906;51.290;7.348;2023-05-07T04:37:50;98690.69;;;20.49;42.80
76156;BME280;64906;51.290;7.348;2023-05-07T04:40:15;98683.06;;;20.46;42.61
76156;BME280;64906;51.290;7.348;2023-05-07T04:42:41;98695.03;;;20.50;42.63
76156;BME280;64906;51.290;7.348;2023-05-07T04:45:06;98695.88;;;20.50;42.95
76156;BME280;64906;51.290;7.348;2023-05-07T04:47:31;98701.06;;;20.52;42.85
76156;BME280;64906;51.290;7.348;2023-05-07T04:49:58;98702.97;;;20.51;42.60
76156;BME280;64906;51.290;7.348;2023-05-07T04:52:23;98699.44;;;20.51;42.84
76156;BME280;64906;51.290;7.348;2023-05-07T04:54:48;98706.53;;;20.52;42.44
76156;BME280;64906;51.290;7.348;2023-05-07T04:57:13;98710.41;;;20.51;42.71
76156;BME280;64906;51.290;7.348;2023-05-07T04:59:39;98706.25;;;20.53;42.66
76156;BME280;64906;51.290;7.348;2023-05-07T05:02:04;98705.41;;;20.53;42.63
76156;BME280;64906;51.290;7.348;2023-05-07T05:04:30;98698.03;;;20.53;42.90
76156;BME280;64906;51.290;7.348;2023-05-07T05:06:55;98696.09;;;20.54;42.50
76156;BME280;64906;51.290;7.348;2023-05-07T05:09:21;98701.59;;;20.54;42.74
76156;BME280;64906;51.290;7.348;2023-05-07T05:11:46;98700.47;;;20.55;42.59
76156;BME280;64906;51.290;7.348;2023-05-07T05:14:11;98704.84;;;20.56;42.68
76156;BME280;64906;51.290;7.348;2023-05-07T05:16:36;98709.22;;;20.57;42.53
76156;BME280;64906;51.290;7.348;2023-05-07T05:19:02;98708.09;;;20.58;42.79
76156;BME280;64906;51.290;7.348;2023-05-07T05:21:27;98706.47;;;20.57;42.87
76156;BME280;64906;51.290;7.348;2023-05-07T05:23:52;98709.22;;;20.57;42.56
76156;BME280;64906;51.290;7.348;2023-05-07T05:26:17;98709.75;;;20.59;42.37
76156;BME280;64906;51.290;7.348;2023-05-07T05:28:43;98711.38;;;20.60;42.63
76156;BME280;64906;51.290;7.348;2023-05-07T05:31:08;98713.00;;;20.61;42.42
76156;BME280;64906;51.290;7.348;2023-05-07T05:33:34;98712.19;;;20.60;42.65
76156;BME280;64906;51.290;7.348;2023-05-07T05:35:59;98718.47;;;20.61;42.64
76156;BME280;64906;51.290;7.348;2023-05-07T05:38:25;98709.16;;;20.62;42.39
76156;BME280;64906;51.290;7.348;2023-05-07T05:40:51;98710.78;;;20.63;42.34
76156;BME280;64906;51.290;7.348;2023-05-07T05:43:16;98712.41;;;20.64;42.36
76156;BME280;64906;51.290;7.348;2023-05-07T05:45:41;98712.41;;;20.64;42.52
76156;BME280;64906;51.290;7.348;2023-05-07T05:48:06;98713.75;;;20.66;42.55
76156;BME280;64906;51.290;7.348;2023-05-07T05:50:33;98715.66;;;20.66;42.42
76156;BME280;64906;51.290;7.348;2023-05-07T05:53:00;98720.84;;;20.67;42.29
76156;BME280;64906;51.290;7.348;2023-05-07T05:55:26;98720.59;;;20.69;42.22
76156;BME280;64906;51.290;7.348;2023-05-07T05:57:51;98723.81;;;20.71;42.30
76156;BME280;64906;51.290;7.348;2023-05-07T06:00:17;98723.03;;;20.70;42.33
76156;BME280;64906;51.290;7.348;2023-05-07T06:02:42;98723.81;;;20.71;42.37
76156;BME280;64906;51.290;7.348;2023-05-07T06:05:08;98723.53;;;20.72;42.19
76156;BME280;64906;51.290;7.348;2023-05-07T06:07:33;98730.66;;;20.73;42.43
76156;BME280;64906;51.290;7.348;2023-05-07T06:10:00;98730.38;;;20.75;42.43
76156;BME280;64906;51.290;7.348;2023-05-07T06:12:25;98726.19;;;20.77;42.29
76156;BME280;64906;51.290;7.348;2023-05-07T06:14:51;98728.16;;;20.77;42.11
76156;BME280;64906;51.290;7.348;2023-05-07T06:17:16;98736.09;;;20.78;42.08
76156;BME280;64906;51.290;7.348;2023-05-07T06:19:41;98729.16;;;20.81;42.18
76156;BME280;64906;51.290;7.348;2023-05-07T06:22:07;98735.47;;;20.81;42.24
76156;BME280;64906;51.290;7.348;2023-05-07T06:24:32;98734.66;;;20.81;42.17
76156;BME280;64906;51.290;7.348;2023-05-07T06:26:57;98734.97;;;20.79;41.99
76156;BME280;64906;51.290;7.348;2023-05-07T06:29:23;98741.78;;;20.82;41.95
76156;BME280;64906;51.290;7.348;2023-05-07T06:31:51;98742.28;;;20.84;41.92
76156;BME280;64906;51.290;7.348;2023-05-07T06:34:16;98750.22;;;20.85;41.89
76156;BME280;64906;51.290;7.348;2023-05-07T06:36:42;98740.91;;;20.86;42.11
76156;BME280;64906;51.290;7.348;2023-05-07T06:39:07;98743.06;;;20.89;42.17
76156;BME280;64906;51.290;7.348;2023-05-07T06:41:32;98742.75;;;20.91;42.00
76156;BME280;64906;51.290;7.348;2023-05-07T06:43:57;98750.69;;;20.92;41.76
76156;BME280;64906;51.290;7.348;2023-05-07T06:46:23;98747.66;;;20.94;41.73
76156;BME280;64906;51.290;7.348;2023-05-07T06:48:48;98748.16;;;20.96;41.63
76156;BME280;64906;51.290;7.348;2023-05-07T06:51:13;98747.91;;;20.97;41.73
76156;BME280;64906;51.290;7.348;2023-05-07T06:53:39;98744.34;;;20.97;41.69
76156;BME280;64906;51.290;7.348;2023-05-07T06:56:04;98749.00;;;20.96;41.79
76156;BME280;64906;51.290;7.348;2023-05-07T06:58:29;98746.78;;;20.98;41.51
76156;BME280;64906;51.290;7.348;2023-05-07T07:00:55;98748.13;;;21.01;41.64
76156;BME280;64906;51.290;7.348;2023-05-07T07:03:20;98747.59;;;20.99;41.85
76156;BME280;64906;51.290;7.348;2023-05-07T07:05:45;98754.44;;;21.01;41.79
76156;BME280;64906;51.290;7.348;2023-05-07T07:08:11;98742.88;;;21.04;41.63
76156;BME280;64906;51.290;7.348;2023-05-07T07:10:36;98745.63;;;21.04;41.64
76156;BME280;64906;51.290;7.348;2023-05-07T07:13:01;98743.66;;;21.05;41.78
76156;BME280;64906;51.290;7.348;2023-05-07T07:15:27;98752.94;;;21.09;41.63
76156;BME280;64906;51.290;7.348;2023-05-07T07:17:52;98746.34;;;21.10;41.72
76156;BME280;64906;51.290;7.348;2023-05-07T07:20:17;98747.97;;;21.11;41.50
76156;BME280;64906;51.290;7.348;2023-05-07T07:22:43;98746.84;;;21.12;42.03
76156;BME280;64906;51.290;7.348;2023-05-07T07:25:08;98741.38;;;21.12;41.67
76156;BME280;64906;51.290;7.348;2023-05-07T07:27:33;98748.50;;;21.13;41.34
76156;BME280;64906;51.290;7.348;2023-05-07T07:29:59;98749.00;;;21.15;41.65
76156;BME280;64906;51.290;7.348;2023-05-07T07:32:24;98748.69;;;21.16;41.64
76156;BME280;64906;51.290;7.348;2023-05-07T07:34:49;98753.41;;;21.16;41.25
76156;BME280;64906;51.290;7.348;2023-05-07T07:37:15;98750.34;;;21.17;41.57
76156;BME280;64906;51.290;7.348;2023-05-07T07:39:40;98752.81;;;21.19;41.68
76156;BME280;64906;51.290;7.348;2023-05-07T07:42:06;98758.81;;;21.21;41.67
76156;BME280;64906;51.290;7.348;2023-05-07T07:44:31;98749.16;;;21.23;41.70
76156;BME280;64906;51.290;7.348;2023-05-07T07:46:56;98748.56;;;21.26;41.42
76156;BME280;64906;51.290;7.348;2023-05-07T07:49:22;98753.75;;;21.28;41.31
76156;BME280;64906;51.290;7.348;2023-05-07T07:51:47;98753.66;;;21.33;41.50
76156;BME280;64906;51.290;7.348;2023-05-07T07:54:13;98755.31;;;21.34;41.47
76156;BME280;64906;51.290;7.348;2023-05-07T07:56:38;98750.63;;;21.34;41.48
76156;BME280;64906;51.290;7.348;2023-05-07T07:59:03;98758.56;;;21.36;41.05
76156;BME280;64906;51.290;7.348;2023-05-07T08:01:30;98756.34;;;21.38;41.00
76156;BME280;64906;51.290;7.348;2023-05-07T08:03:55;98758.78;;;21.40;41.38
76156;BME280;64906;51.290;7.348;2023-05-07T08:06:21;98765.91;;;21.41;41.43
76156;BME280;64906;51.290;7.348;2023-05-07T08:08:46;98765.63;;;21.42;41.23
76156;BME280;64906;51.290;7.348;2023-05-07T08:11:11;98766.94;;;21.45;40.88
76156;BME280;64906;51.290;7.348;2023-05-07T08:13:38;98767.75;;;21.45;41.20
76156;BME280;64906;51.290;7.348;2023-05-07T08:16:04;98762.56;;;21.44;41.35
76156;BME280;64906;51.290;7.348;2023-05-07T08:18:29;98767.25;;;21.43;41.19
76156;BME280;64906;51.290;7.348;2023-05-07T08:20:55;98767.75;;;21.45;41.12
76156;BME280;64906;51.290;7.348;2023-05-07T08:23:20;98770.72;;;21.49;41.07
76156;BME280;64906;51.290;7.348;2023-05-07T08:25:46;98770.19;;;21.47;40.91
76156;BME280;64906;51.290;7.348;2023-05-07T08:28:11;98776.94;;;21.54;40.86
76156;BME280;64906;51.290;7.348;2023-05-07T08:30:37;98778.59;;;21.55;41.16
76156;BME280;64906;51.290;7.348;2023-05-07T08:33:02;98768.91;;;21.58;40.84
76156;BME280;64906;51.290;7.348;2023-05-07T08:35:27;98768.63;;;21.59;41.17
76156;BME280;64906;51.290;7.348;2023-05-07T08:37:53;98765.56;;;21.61;40.83
76156;BME280;64906;51.290;7.348;2023-05-07T08:40:18;98774.63;;;21.61;41.03
76156;BME280;64906;51.290;7.348;2023-05-07T08:42:44;98776.78;;;21.64;40.62
76156;BME280;64906;51.290;7.348;2023-05-07T08:45:10;98784.72;;;21.66;41.01
76156;BME280;64906;51.290;7.348;2023-05-07T08:47:42;98773.72;;;21.66;41.10
76156;BME280;64906;51.290;7.348;2023-05-07T08:50:10;98774.53;;;21.66;40.64
76156;BME280;64906;51.290;7.348;2023-05-07T08:52:36;98771.19;;;21.69;40.81
76156;BME280;64906;51.290;7.348;2023-05-07T08:55:02;98775.59;;;21.70;40.98
76156;BME280;64906;51.290;7.348;2023-05-07T08:57:28;98782.19;;;21.69;41.00
76156;BME280;64906;51.290;7.348;2023-05-07T08:59:53;98776.38;;;21.71;40.70
76156;BME280;64906;51.290;7.348;2023-05-07T09:02:18;98777.22;;;21.71;41.08
76156;BME280;64906;51.290;7.348;2023-05-07T09:04:44;98762.34;;;21.72;40.68
76156;BME280;64906;51.290;7.348;2023-05-07T09:07:09;98775.78;;;21.74;40.95
76156;BME280;64906;51.290;7.348;2023-05-07T09:09:35;98771.09;;;21.74;40.92
76156;BME280;64906;51.290;7.348;2023-05-07T09:12:00;98765.31;;;21.76;40.91
76156;BME280;64906;51.290;7.348;2023-05-07T09:14:27;98761.19;;;21.78;40.68
76156;BME280;64906;51.290;7.348;2023-05-07T09:16:53;98771.06;;;21.79;40.79
76156;BME280;64906;51.290;7.348;2023-05-07T09:19:22;98767.47;;;21.79;40.79
76156;BME280;64906;51.290;7.348;2023-05-07T09:21:48;98765.25;;;21.81;40.97
76156;BME280;64906;51.290;7.348;2023-05-07T09:24:15;98770.75;;;21.81;40.39
76156;BME280;64906;51.290;7.348;2023-05-07T09:26:40;98763.63;;;21.80;40.79
76156;BME280;64906;51.290;7.348;2023-05-07T09:29:07;98762.50;;;21.81;40.79
76156;BME280;64906;51.290;7.348;2023-05-07T09:31:36;98762.81;;;21.79;40.85
76156;BME280;64906;51.290;7.348;2023-05-07T09:34:04;98769.34;;;21.83;40.75
76156;BME280;64906;51.290;7.348;2023-05-07T09:36:31;98771.28;;;21.83;40.92
76156;BME280;64906;51.290;7.348;2023-05-07T09:38:59;98755.91;;;21.82;40.58
76156;BME280;64906;51.290;7.348;2023-05-07T09:41:25;98763.53;;;21.85;40.51
76156;BME280;64906;51.290;7.348;2023-05-07T09:43:54;98767.91;;;21.86;40.87
76156;BME280;64906;51.290;7.348;2023-05-07T09:46:25;98764.56;;;21.89;40.87
76156;BME280;64906;51.290;7.348;2023-05-07T09:48:53;98776.06;;;21.91;40.86
76156;BME280;64906;51.290;7.348;2023-05-07T09:51:34;98764.25;;;21.90;40.50
76156;BME280;64906;51.290;7.348;2023-05-07T09:54:04;98769.75;;;21.90;40.76
76156;BME280;64906;51.290;7.348;2023-05-07T09:56:30;98764.25;;;21.90;40.65
76156;BME280;64906;51.290;7.348;2023-05-07T09:59:01;98762.53;;;21.94;40.69
76156;BME280;64906;51.290;7.348;2023-05-07T10:01:29;98770.78;;;21.94;40.64
76156;BME280;64906;51.290;7.348;2023-05-07T10:03:55;98771.88;;;21.93;40.72
76156;BME280;64906;51.290;7.348;2023-05-07T10:06:24;98770.50;;;21.96;40.50
76156;BME280;64906;51.290;7.348;2023-05-07T10:08:51;98769.13;;;21.93;40.67
76156;BME280;64906;51.290;7.348;2023-05-07T10:11:17;98775.38;;;21.99;40.63
76156;BME280;64906;51.290;7.348;2023-05-07T10:13:43;98769.56;;;22.00;40.69
76156;BME280;64906;51.290;7.348;2023-05-07T10:16:09;98767.13;;;21.99;40.80
76156;BME280;64906;51.290;7.348;2023-05-07T10:18:34;98761.63;;;21.99;40.60
76156;BME280;64906;51.290;7.348;2023-05-07T10:21:16;98761.63;;;21.99;40.40
76156;BME280;64906;51.290;7.348;2023-05-07T10:23:50;98756.13;;;21.99;40.77
76156;BME280;64906;51.290;7.348;2023-05-07T10:26:18;98772.63;;;21.99;40.77
76156;BME280;64906;51.290;7.348;2023-05-07T10:28:49;98756.44;;;21.97;40.77
76156;BME280;64906;51.290;7.348;2023-05-07T10:31:37;98755.00;;;22.00;40.60
76156;BME280;64906;51.290;7.348;2023-05-07T10:34:10;98758.06;;;21.98;40.62
76156;BME280;64906;51.290;7.348;2023-05-07T10:36:37;98764.06;;;22.00;40.81
76156;BME280;64906;51.290;7.348;2023-05-07T10:39:02;98763.47;;;22.03;40.42
76156;BME280;64906;51.290;7.348;2023-05-07T10:41:28;98760.41;;;22.05;40.71
76156;BME280;64906;51.290;7.348;2023-05-07T10:43:53;98760.72;;;22.03;40.74
76156;BME280;64906;51.290;7.348;2023-05-07T10:46:20;98761.75;;;22.07;40.63
76156;BME280;64906;51.290;7.348;2023-05-07T10:51:27;98764.50;;;22.07;40.42
76156;BME280;64906;51.290;7.348;2023-05-07T10:56:37;98759.31;;;22.06;40.83
76156;BME280;64906;51.290;7.348;2023-05-07T11:01:53;98764.81;;;22.06;40.31
76156;BME280;64906;51.290;7.348;2023-05-07T11:04:19;98763.69;;;22.07;40.33
76156;BME280;64906;51.290;7.348;2023-05-07T11:15:03;98754.81;;;22.10;40.51
76156;BME280;64906;51.290;7.348;2023-05-07T11:17:29;98765.50;;;22.11;40.45
76156;BME280;64906;51.290;7.348;2023-05-07T11:19:57;98763.28;;;22.13;40.33
76156;BME280;64906;51.290;7.348;2023-05-07T11:25:02;98756.38;;;22.16;40.67
76156;BME280;64906;51.290;7.348;2023-05-07T11:27:29;98758.00;;;22.17;40.67
76156;BME280;64906;51.290;7.348;2023-05-07T11:29:55;98753.63;;;22.16;40.23
76156;BME280;64906;51.290;7.348;2023-05-07T11:32:28;98758.50;;;22.19;40.36
76156;BME280;64906;51.290;7.348;2023-05-07T11:34:54;98754.94;;;22.18;40.31
76156;BME280;64906;51.290;7.348;2023-05-07T11:37:22;98750.78;;;22.21;40.67
76156;BME280;64906;51.290;7.348;2023-05-07T11:39:48;98748.91;;;22.16;40.30
76156;BME280;64906;51.290;7.348;2023-05-07T11:42:38;98754.09;;;22.18;40.52
76156;BME280;64906;51.290;7.348;2023-05-07T11:45:06;98745.69;;;22.14;40.14
76156;BME280;64906;51.290;7.348;2023-05-07T11:47:32;98746.78;;;22.13;40.45
76156;BME280;64906;51.290;7.348;2023-05-07T11:50:02;98747.09;;;22.12;40.40
76156;BME280;64906;51.290;7.348;2023-05-07T11:52:28;98754.50;;;22.11;40.59
76156;BME280;64906;51.290;7.348;2023-05-07T11:54:55;98752.91;;;22.10;40.62
76156;BME280;64906;51.290;7.348;2023-05-07T11:57:22;98759.81;;;22.08;40.96
76156;BME280;64906;51.290;7.348;2023-05-07T11:59:47;98761.22;;;22.05;40.58
76156;BME280;64906;51.290;7.348;2023-05-07T12:02:14;98754.13;;;22.04;40.65
76156;BME280;64906;51.290;7.348;2023-05-07T12:04:40;98756.34;;;22.02;40.88
76156;BME280;64906;51.290;7.348;2023-05-07T12:07:10;98761.53;;;22.04;40.54
76156;BME280;64906;51.290;7.348;2023-05-07T12:09:36;98754.41;;;22.03;40.66
76156;BME280;64906;51.290;7.348;2023-05-07T12:12:05;98755.00;;;22.00;40.72
76156;BME280;64906;51.290;7.348;2023-05-07T12:14:30;98752.88;;;21.97;40.74
76156;BME280;64906;51.290;7.348;2023-05-07T12:16:56;98754.81;;;21.96;40.85
76156;BME280;64906;51.290;7.348;2023-05-07T12:19:22;98770.78;;;21.94;41.21
76156;BME280;64906;51.290;7.348;2023-05-07T12:21:48;98765.28;;;21.94;41.11
76156;BME280;64906;51.290;7.348;2023-05-07T12:24:14;98771.63;;;21.95;40.70
76156;BME280;64906;51.290;7.348;2023-05-07T12:26:40;98773.31;;;21.91;41.14
76156;BME280;64906;51.290;7.348;2023-05-07T12:29:06;98778.00;;;21.90;40.96
76156;BME280;64906;51.290;7.348;2023-05-07T12:31:32;98784.94;;;21.88;41.17
76156;BME280;64906;51.290;7.348;2023-05-07T12:33:57;98783.59;;;21.85;41.13
76156;BME280;64906;51.290;7.348;2023-05-07T12:36:22;98816.06;;;21.83;41.29
76156;BME280;64906;51.290;7.348;2023-05-07T12:38:49;98796.81;;;21.83;40.93
76156;BME280;64906;51.290;7.348;2023-05-07T12:41:15;98791.91;;;21.80;41.48
76156;BME280;64906;51.290;7.348;2023-05-07T12:43:43;98800.97;;;21.81;41.30
76156;BME280;64906;51.290;7.348;2023-05-07T12:46:09;98803.19;;;21.79;41.22
76156;BME280;64906;51.290;7.348;2023-05-07T12:48:43;98818.38;;;21.76;41.54
76156;BME280;64906;51.290;7.348;2023-05-07T12:51:09;98821.69;;;21.73;41.29
76156;BME280;64906;51.290;7.348;2023-05-07T12:53:40;98839.81;;;21.74;41.22
76156;BME280;64906;51.290;7.348;2023-05-07T12:56:05;98844.78;;;21.72;41.63
76156;BME280;64906;51.290;7.348;2023-05-07T12:58:34;98855.75;;;21.72;41.25
76156;BME280;64906;51.290;7.348;2023-05-07T13:01:09;98860.47;;;21.72;41.36
76156;BME280;64906;51.290;7.348;2023-05-07T13:03:37;98849.78;;;21.70;41.80
76156;BME280;64906;51.290;7.348;2023-05-07T13:06:07;98835.75;;;21.72;41.77
76156;BME280;64906;51.290;7.348;2023-05-07T13:08:39;98830.84;;;21.69;41.69
76156;BME280;64906;51.290;7.348;2023-05-07T13:11:09;98828.38;;;21.67;41.67
76156;BME280;64906;51.290;7.348;2023-05-07T13:13:36;98824.53;;;21.68;41.41